Zhanjiang, China
Current Conditions -  °F | °C
As of 12:00 PM on Monday 20 Oct 2014 (Local Time) from ZJHK Reporting Station
Broken Clouds Broken Clouds  
Wind Chill: 81°   Ceiling: 2000
Heat Index: 85°   Visibility: 6mi
Dew Point: 73°   Wind: 11mph
Humidity: 79%   Direction: 120°ESE
Pressure: 29.94"   Gusts: NA
Location:  21.2°N, 110.38°E
Report Text: ZJHK 200400Z 12005MPS 070V170 9999 FEW020CB BKN020BKN04027/23 Q1014 NOSIG
Loading
Personal Weather Stations






























Interactive Weather Map
Tropical Storm Tracking
New forecast layout! Learn more

10-Day Weather Forecast

Advertisements
Track Severe Weather on mobile